createdAt,value
2018-02-18T00:01:11.552Z,20.40
2018-02-18T00:03:40.445Z,21.40
2018-02-18T00:06:16.489Z,19.50
2018-02-18T00:08:44.572Z,20.15
2018-02-18T00:11:13.426Z,20.00
2018-02-18T00:13:42.652Z,20.20
2018-02-18T00:16:10.435Z,20.35
2018-02-18T00:18:39.806Z,20.10
2018-02-18T00:21:08.093Z,19.05
2018-02-18T00:23:36.435Z,18.80
2018-02-18T00:26:05.246Z,20.33
2018-02-18T00:28:33.265Z,21.08
2018-02-18T00:31:01.561Z,20.65
2018-02-18T00:33:29.958Z,19.10
2018-02-18T00:35:57.778Z,19.27
2018-02-18T00:38:25.547Z,19.73
2018-02-18T00:40:53.488Z,19.33
2018-02-18T00:43:21.208Z,20.65
2018-02-18T00:45:49.080Z,19.25
2018-02-18T00:48:16.842Z,19.80
2018-02-18T00:50:45.469Z,18.77
2018-02-18T00:53:14.129Z,20.27
2018-02-18T00:55:41.888Z,20.10
2018-02-18T00:58:10.875Z,19.50
2018-02-18T01:00:38.681Z,19.08
2018-02-18T01:03:07.283Z,19.20
2018-02-18T01:05:35.761Z,18.70
2018-02-18T01:08:05.283Z,19.33
2018-02-18T01:10:33.186Z,19.37
2018-02-18T01:13:01.286Z,18.80
2018-02-18T01:15:29.888Z,18.35
2018-02-18T01:17:58.365Z,18.92
2018-02-18T01:20:26.559Z,18.62
2018-02-18T01:22:54.564Z,20.27
2018-02-18T01:25:23.706Z,18.60
2018-02-18T01:27:51.646Z,19.17
2018-02-18T01:30:19.709Z,18.95
2018-02-18T01:32:47.880Z,19.70
2018-02-18T01:35:15.544Z,19.37
2018-02-18T01:37:44.096Z,18.52
2018-02-18T01:40:11.768Z,19.23
2018-02-18T01:42:39.578Z,19.80
2018-02-18T01:45:07.990Z,19.70
2018-02-18T01:47:36.038Z,20.15
2018-02-18T01:50:16.524Z,19.77
2018-02-18T01:52:44.275Z,18.75
2018-02-18T01:55:12.917Z,18.90
2018-02-18T01:57:41.607Z,18.85
2018-02-18T02:00:09.555Z,18.70
2018-02-18T02:02:37.671Z,19.00
2018-02-18T02:05:06.005Z,19.67
2018-02-18T02:07:33.992Z,19.08
2018-02-18T02:10:01.872Z,19.27
2018-02-18T02:12:29.975Z,20.85
2018-02-18T02:14:58.649Z,20.10
2018-02-18T02:17:26.640Z,20.90
2018-02-18T02:19:54.983Z,20.37
2018-02-18T02:22:22.728Z,20.25
2018-02-18T02:24:51.599Z,20.00
2018-02-18T02:27:19.638Z,19.52
2018-02-18T02:29:47.859Z,20.33
2018-02-18T02:32:15.621Z,20.60
2018-02-18T02:34:43.421Z,20.52
2018-02-18T02:37:11.961Z,19.83
2018-02-18T02:39:39.812Z,20.08
2018-02-18T02:42:07.500Z,20.20
2018-02-18T02:44:35.221Z,19.45
2018-02-18T02:47:03.752Z,19.48
2018-02-18T02:49:31.610Z,18.50
2018-02-18T02:52:00.330Z,20.30
2018-02-18T02:54:28.910Z,19.48
2018-02-18T02:56:57.462Z,18.55
2018-02-18T02:59:25.208Z,20.65
2018-02-18T03:01:53.518Z,19.45
2018-02-18T03:04:21.680Z,20.58
2018-02-18T03:06:49.928Z,19.73
2018-02-18T03:09:17.712Z,20.23
2018-02-18T03:11:45.512Z,20.90
2018-02-18T03:14:13.983Z,21.70
2018-02-18T03:16:43.023Z,19.85
2018-02-18T03:19:11.532Z,20.65
2018-02-18T03:21:39.338Z,20.65
2018-02-18T03:24:07.457Z,21.42
2018-02-18T03:26:35.216Z,19.70
2018-02-18T03:29:02.955Z,19.98
2018-02-18T03:31:30.639Z,19.52
2018-02-18T03:33:59.382Z,18.90
2018-02-18T03:36:27.121Z,19.58
2018-02-18T03:38:54.865Z,20.80
2018-02-18T03:41:22.828Z,21.83
2018-02-18T03:43:50.569Z,21.23
2018-02-18T03:46:18.365Z,21.90
2018-02-18T03:48:46.303Z,19.92
2018-02-18T03:51:14.186Z,19.17
2018-02-18T03:53:41.889Z,20.05
2018-02-18T03:56:09.575Z,18.87
2018-02-18T03:58:37.352Z,19.83
2018-02-18T04:01:05.055Z,19.52
2018-02-18T04:03:32.770Z,17.77
2018-02-18T04:06:01.325Z,18.80
2018-02-18T04:08:29.806Z,18.42
2018-02-18T04:10:58.316Z,18.35
2018-02-18T04:13:26.932Z,18.20
2018-02-18T04:15:54.920Z,18.55
2018-02-18T04:18:23.410Z,17.73
2018-02-18T04:20:52.031Z,17.58
2018-02-18T04:23:19.734Z,17.60
2018-02-18T04:25:47.390Z,17.90
2018-02-18T04:28:15.102Z,18.05
2018-02-18T04:30:42.868Z,18.15
2018-02-18T04:33:10.671Z,16.85
2018-02-18T04:35:38.660Z,18.23
2018-02-18T04:38:06.363Z,17.05
2018-02-18T04:40:35.376Z,17.27
2018-02-18T04:43:03.178Z,17.05
2018-02-18T04:45:30.934Z,18.17
2018-02-18T04:47:58.899Z,16.70
2018-02-18T04:50:26.788Z,17.65
2018-02-18T04:52:54.711Z,17.70
2018-02-18T04:55:22.620Z,18.27
2018-02-18T04:57:50.470Z,16.85
2018-02-18T05:00:19.075Z,18.40
2018-02-18T05:02:48.392Z,16.85
2018-02-18T05:05:17.145Z,17.40
2018-02-18T05:07:44.986Z,17.70
2018-02-18T05:10:13.205Z,17.20
2018-02-18T05:12:41.330Z,17.02
2018-02-18T05:15:10.283Z,16.77
2018-02-18T05:17:38.018Z,17.08
2018-02-18T05:20:05.690Z,17.20
2018-02-18T05:22:33.348Z,18.12
2018-02-18T05:25:02.172Z,17.12
2018-02-18T05:27:29.994Z,17.80
2018-02-18T05:29:58.720Z,17.02
2018-02-18T05:32:26.501Z,18.33
2018-02-18T05:34:54.277Z,17.23
2018-02-18T05:37:22.279Z,17.17
2018-02-18T05:39:50.019Z,17.35
2018-02-18T05:42:18.169Z,17.90
2018-02-18T05:44:46.791Z,19.23
2018-02-18T05:47:14.724Z,17.52
2018-02-18T05:49:44.680Z,17.67
2018-02-18T05:52:12.677Z,18.50
2018-02-18T05:54:40.721Z,17.37
2018-02-18T05:57:08.982Z,18.23
2018-02-18T05:59:38.157Z,18.20
2018-02-18T06:02:07.127Z,17.60
2018-02-18T06:04:35.678Z,17.87
2018-02-18T06:07:03.458Z,18.15
2018-02-18T06:09:31.914Z,19.05
2018-02-18T06:11:59.613Z,17.83
2018-02-18T06:14:27.359Z,18.85
2018-02-18T06:16:55.577Z,17.70
2018-02-18T06:19:23.335Z,18.25
2018-02-18T06:21:51.065Z,18.77
2018-02-18T06:24:18.733Z,18.10
2018-02-18T06:26:47.253Z,18.52
2018-02-18T06:29:14.924Z,18.25
2018-02-18T06:31:42.800Z,17.80
2018-02-18T06:34:10.500Z,19.83
2018-02-18T06:36:39.030Z,18.98
2018-02-18T06:39:06.772Z,19.50
2018-02-18T06:41:34.599Z,20.08
2018-02-18T06:44:02.257Z,20.55
2018-02-18T06:46:30.169Z,20.92
2018-02-18T06:48:58.809Z,22.37
2018-02-18T06:51:26.465Z,19.15
2018-02-18T06:53:54.725Z,20.73
2018-02-18T06:56:22.463Z,20.20
2018-02-18T06:58:50.901Z,19.67
2018-02-18T07:01:19.578Z,19.92
2018-02-18T07:03:47.276Z,19.95
2018-02-18T07:06:14.964Z,18.75
2018-02-18T07:08:42.636Z,19.58
2018-02-18T07:11:10.703Z,20.75
2018-02-18T07:13:39.421Z,20.52
2018-02-18T07:16:07.121Z,19.92
2018-02-18T07:18:35.412Z,21.50
2018-02-18T07:21:03.365Z,19.40
2018-02-18T07:23:31.110Z,19.50
2018-02-18T07:26:00.011Z,19.92
2018-02-18T07:28:28.508Z,19.80
2018-02-18T07:30:56.230Z,19.95
2018-02-18T07:33:23.873Z,20.75
2018-02-18T07:35:51.585Z,19.67
2018-02-18T07:38:19.753Z,21.20
2018-02-18T07:40:47.789Z,19.95
2018-02-18T07:43:15.816Z,19.98
2018-02-18T07:45:43.556Z,21.27
2018-02-18T07:48:11.310Z,20.95
2018-02-18T07:50:39.925Z,20.05
2018-02-18T07:53:07.661Z,20.92
2018-02-18T07:55:36.306Z,20.73
2018-02-18T07:58:04.199Z,21.62
2018-02-18T08:00:32.052Z,20.25
2018-02-18T08:03:00.062Z,22.62
2018-02-18T08:05:28.635Z,21.77
2018-02-18T08:07:56.634Z,22.30
2018-02-18T08:10:24.425Z,23.10
2018-02-18T08:12:52.197Z,21.73
2018-02-18T08:15:19.878Z,21.23
2018-02-18T08:17:53.531Z,21.75
2018-02-18T08:20:21.227Z,21.20
2018-02-18T08:22:48.934Z,21.98
2018-02-18T08:25:16.675Z,22.50
2018-02-18T08:27:46.039Z,20.62
2018-02-18T08:30:14.523Z,21.37
2018-02-18T08:32:42.576Z,21.83
2018-02-18T08:35:10.293Z,20.12
2018-02-18T08:37:38.724Z,21.55
2018-02-18T08:40:06.460Z,21.90
2018-02-18T08:42:34.146Z,22.73
2018-02-18T08:45:01.893Z,20.98
2018-02-18T08:47:29.569Z,22.05
2018-02-18T08:49:57.442Z,22.50
2018-02-18T08:52:25.671Z,20.42
2018-02-18T08:54:53.345Z,21.52
2018-02-18T08:57:21.075Z,21.95
2018-02-18T08:59:48.796Z,21.30
2018-02-18T09:02:16.544Z,21.17
2018-02-18T09:04:45.370Z,21.45
2018-02-18T09:07:13.327Z,21.48
2018-02-18T09:09:41.810Z,20.23
2018-02-18T09:12:11.422Z,23.55
2018-02-18T09:14:39.455Z,21.95
2018-02-18T09:17:13.730Z,22.00
2018-02-18T09:19:41.389Z,22.45
2018-02-18T09:22:09.302Z,21.65
2018-02-18T09:24:37.072Z,22.45
2018-02-18T09:27:04.844Z,22.40
2018-02-18T09:29:32.551Z,22.42
2018-02-18T09:32:01.178Z,21.87
2018-02-18T09:34:29.170Z,22.52
2018-02-18T09:36:56.840Z,22.15
2018-02-18T09:39:24.512Z,22.67
2018-02-18T09:41:52.224Z,22.00
2018-02-18T09:44:19.964Z,22.00
2018-02-18T09:46:48.393Z,22.13
2018-02-18T09:49:16.117Z,21.70
2018-02-18T09:51:44.150Z,22.00
2018-02-18T09:54:13.155Z,21.57
2018-02-18T09:56:40.841Z,22.20
2018-02-18T09:59:09.378Z,20.77
2018-02-18T10:01:37.774Z,21.37
2018-02-18T10:04:05.663Z,20.30
2018-02-18T10:06:33.557Z,19.07
2018-02-18T10:09:01.254Z,20.23
2018-02-18T10:11:28.978Z,21.50
2018-02-18T10:13:56.687Z,19.90
2018-02-18T10:16:24.376Z,21.00
2018-02-18T10:18:52.831Z,21.40
2018-02-18T10:21:22.807Z,23.83
2018-02-18T10:23:50.500Z,21.40
2018-02-18T10:26:19.231Z,22.83
2018-02-18T10:28:47.861Z,22.97
2018-02-18T10:31:16.058Z,23.90
2018-02-18T10:33:43.798Z,23.37
2018-02-18T10:36:12.004Z,23.40
2018-02-18T10:38:40.471Z,24.40
2018-02-18T10:41:08.254Z,23.10
2018-02-18T10:43:35.925Z,25.10
2018-02-18T10:46:03.741Z,25.10
2018-02-18T10:48:31.454Z,25.03
2018-02-18T10:50:59.901Z,24.47
2018-02-18T10:53:27.854Z,24.63
2018-02-18T10:55:56.040Z,23.17
2018-02-18T10:58:23.773Z,24.07
2018-02-18T11:00:51.514Z,23.97
2018-02-18T11:03:19.246Z,23.00
2018-02-18T11:05:46.953Z,23.07
2018-02-18T11:08:14.961Z,23.60
2018-02-18T11:10:43.904Z,22.67
2018-02-18T11:13:11.701Z,24.10
2018-02-18T11:15:39.410Z,22.67
2018-02-18T11:18:07.641Z,23.30
2018-02-18T11:20:35.366Z,21.10
2018-02-18T11:23:03.702Z,21.77
2018-02-18T11:25:31.447Z,20.83
2018-02-18T11:27:59.781Z,21.20
2018-02-18T11:30:27.645Z,21.13
2018-02-18T11:32:56.056Z,21.03
2018-02-18T11:35:23.873Z,21.73
2018-02-18T11:37:51.608Z,23.47
2018-02-18T11:40:19.537Z,21.93
2018-02-18T11:42:47.886Z,20.80
2018-02-18T11:45:17.368Z,21.30
2018-02-18T11:47:45.753Z,20.00
2018-02-18T11:50:14.686Z,19.80
2018-02-18T11:52:42.487Z,20.07
2018-02-18T11:55:10.146Z,18.97
2018-02-18T11:57:38.369Z,19.27
2018-02-18T12:00:07.087Z,20.00
2018-02-18T12:02:34.830Z,19.80
2018-02-18T12:05:02.594Z,25.97
2018-02-18T12:07:31.196Z,21.00
2018-02-18T12:09:58.887Z,20.73
2018-02-18T12:12:26.697Z,20.87
2018-02-18T12:14:54.448Z,22.53
2018-02-18T12:17:23.583Z,19.40
2018-02-18T12:19:51.271Z,21.97
2018-02-18T12:22:19.001Z,19.73
2018-02-18T12:24:46.725Z,22.93
2018-02-18T12:27:14.496Z,21.50
2018-02-18T12:29:42.993Z,19.67
2018-02-18T12:32:11.554Z,19.73
2018-02-18T12:34:41.405Z,20.57
2018-02-18T12:37:10.111Z,19.37
2018-02-18T12:39:37.795Z,20.40
2018-02-18T12:42:05.573Z,21.07
2018-02-18T12:44:33.383Z,20.50
2018-02-18T12:47:01.413Z,21.50
2018-02-18T12:49:29.643Z,20.23
2018-02-18T12:51:58.238Z,20.70
2018-02-18T12:54:26.631Z,19.17
2018-02-18T12:56:54.301Z,19.60
2018-02-18T12:59:22.524Z,20.53
2018-02-18T13:01:51.247Z,17.67
2018-02-18T13:04:19.089Z,17.67
2018-02-18T13:06:47.297Z,17.63
2018-02-18T13:09:15.118Z,16.97
2018-02-18T13:11:42.970Z,18.13
2018-02-18T13:14:10.673Z,17.33
2018-02-18T13:16:38.592Z,18.13
2018-02-18T13:19:07.069Z,18.17
2018-02-18T13:21:34.811Z,15.77
2018-02-18T13:24:02.767Z,15.60
2018-02-18T13:26:31.333Z,15.87
2018-02-18T13:28:59.012Z,14.53
2018-02-18T13:31:26.750Z,15.30
2018-02-18T13:33:54.551Z,14.97
2018-02-18T13:36:22.671Z,15.17
2018-02-18T13:38:50.404Z,15.60
2018-02-18T13:41:18.375Z,16.50
2018-02-18T13:43:47.419Z,17.53
2018-02-18T13:46:15.328Z,16.50
2018-02-18T13:48:43.647Z,17.73
2018-02-18T13:51:11.325Z,18.43
2018-02-18T13:53:39.205Z,17.30
2018-02-18T13:56:07.803Z,17.90
2018-02-18T13:58:35.448Z,18.60
2018-02-18T14:01:03.138Z,19.30
2018-02-18T14:03:31.514Z,18.70
2018-02-18T14:05:59.322Z,18.53
2018-02-18T14:08:27.737Z,19.47
2018-02-18T14:10:55.544Z,18.47
2018-02-18T14:13:24.145Z,19.50
2018-02-18T14:15:52.226Z,18.87
2018-02-18T14:18:20.610Z,18.57
2018-02-18T14:20:48.324Z,18.60
2018-02-18T14:23:16.186Z,18.40
2018-02-18T14:25:43.892Z,17.07
2018-02-18T14:28:11.554Z,17.57
2018-02-18T14:30:39.306Z,16.80
2018-02-18T14:33:08.374Z,18.00
2018-02-18T14:35:36.725Z,16.93
2018-02-18T14:38:04.485Z,16.13
2018-02-18T14:40:32.182Z,15.90
2018-02-18T14:43:11.608Z,17.03
2018-02-18T14:45:51.061Z,18.07
2018-02-18T14:48:30.473Z,17.20
2018-02-18T14:51:10.179Z,18.07
2018-02-18T14:53:49.785Z,19.23
2018-02-18T14:56:29.951Z,19.57
2018-02-18T14:58:57.631Z,19.87
2018-02-18T15:01:26.215Z,18.83
2018-02-18T15:03:54.744Z,18.50
2018-02-18T15:06:22.567Z,17.87
2018-02-18T15:08:50.233Z,19.60
2018-02-18T15:11:17.972Z,19.50
2018-02-18T15:13:45.669Z,18.33
2018-02-18T15:16:13.351Z,19.43
2018-02-18T15:18:41.077Z,18.10
2018-02-18T15:21:08.782Z,20.60
2018-02-18T15:23:36.508Z,21.50
2018-02-18T15:26:04.256Z,18.47
2018-02-18T15:28:32.962Z,20.40
2018-02-18T15:31:01.890Z,20.07
2018-02-18T15:33:29.688Z,20.80
2018-02-18T15:35:57.484Z,20.17
2018-02-18T15:38:25.174Z,19.50
2018-02-18T15:40:53.132Z,20.73
2018-02-18T15:43:20.893Z,18.80
2018-02-18T15:45:49.743Z,21.00
2018-02-18T15:48:17.531Z,21.40
2018-02-18T15:50:45.189Z,21.37
2018-02-18T15:53:12.955Z,20.57
2018-02-18T15:55:42.416Z,20.60
2018-02-18T15:58:10.866Z,21.27
2018-02-18T16:00:38.663Z,20.80
2018-02-18T16:03:07.183Z,20.10
2018-02-18T16:05:34.915Z,22.20
2018-02-18T16:08:03.234Z,20.07
2018-02-18T16:10:31.793Z,19.60
2018-02-18T16:13:00.020Z,20.00
2018-02-18T16:15:27.972Z,19.07
2018-02-18T16:17:55.813Z,19.20
2018-02-18T16:20:23.545Z,20.07
2018-02-18T16:22:51.211Z,20.57
2018-02-18T16:25:19.162Z,20.80
2018-02-18T16:27:46.896Z,18.40
2018-02-18T16:30:14.564Z,20.90
2018-02-18T16:32:43.225Z,17.97
2018-02-18T16:35:11.120Z,18.30
2018-02-18T16:37:39.000Z,19.63
2018-02-18T16:40:07.634Z,17.77
2018-02-18T16:42:35.342Z,19.90
2018-02-18T16:45:03.816Z,19.80
2018-02-18T16:47:31.774Z,19.67
2018-02-18T16:50:00.781Z,19.67
2018-02-18T16:52:29.576Z,18.70
2018-02-18T16:54:57.297Z,19.20
2018-02-18T16:57:25.658Z,18.27
2018-02-18T16:59:53.373Z,19.40
2018-02-18T17:02:21.081Z,19.60
2018-02-18T17:04:48.733Z,18.03
2018-02-18T17:07:16.396Z,19.17
2018-02-18T17:09:46.722Z,18.43
2018-02-18T17:12:14.596Z,18.90
2018-02-18T17:14:42.336Z,19.63
2018-02-18T17:17:10.614Z,18.80
2018-02-18T17:19:39.800Z,19.63
2018-02-18T17:22:07.730Z,20.90
2018-02-18T17:24:35.509Z,19.60
2018-02-18T17:27:03.919Z,18.00
2018-02-18T17:29:31.609Z,18.53
2018-02-18T17:32:00.176Z,18.03
2018-02-18T17:34:27.833Z,19.37
2018-02-18T17:36:55.492Z,19.17
2018-02-18T17:39:23.239Z,20.23
2018-02-18T17:41:51.826Z,21.50
2018-02-18T17:44:20.804Z,20.70
2018-02-18T17:46:49.277Z,19.20
2018-02-18T17:49:16.972Z,20.20
2018-02-18T17:51:44.615Z,20.73
2018-02-18T17:54:12.391Z,20.20
2018-02-18T17:56:41.697Z,19.80
2018-02-18T17:59:10.127Z,20.90
2018-02-18T18:01:37.883Z,20.73
2018-02-18T18:04:05.567Z,22.10
2018-02-18T18:06:33.310Z,22.00
2018-02-18T18:09:01.026Z,19.92
2018-02-18T18:11:28.716Z,20.97
2018-02-18T18:13:56.564Z,20.00
2018-02-18T18:16:24.300Z,20.67
2018-02-18T18:18:52.796Z,20.50
2018-02-18T18:21:20.604Z,21.60
2018-02-18T18:23:49.093Z,20.73
2018-02-18T18:26:16.835Z,21.30
2018-02-18T18:28:44.775Z,20.10
2018-02-18T18:31:13.469Z,20.17
2018-02-18T18:33:41.771Z,20.20
2018-02-18T18:36:10.498Z,21.27
2018-02-18T18:38:38.297Z,21.40
2018-02-18T18:41:06.076Z,21.20
2018-02-18T18:43:33.853Z,20.77
2018-02-18T18:46:01.621Z,21.65
2018-02-18T18:48:29.337Z,21.60
2018-02-18T18:50:58.854Z,22.63
2018-02-18T18:53:26.733Z,22.70
2018-02-18T18:55:54.649Z,22.30
2018-02-18T18:58:22.414Z,23.47
2018-02-18T19:00:51.011Z,22.13
2018-02-18T19:03:18.810Z,22.13
2018-02-18T19:05:46.484Z,24.43
2018-02-18T19:08:14.235Z,23.00
2018-02-18T19:10:41.983Z,24.20
2018-02-18T19:13:10.834Z,22.80
2018-02-18T19:15:38.554Z,23.13
2018-02-18T19:18:06.176Z,23.00
2018-02-18T19:20:34.426Z,23.50
2018-02-18T19:23:02.509Z,21.47
2018-02-18T19:25:30.342Z,22.63
2018-02-18T19:27:58.192Z,22.73
2018-02-18T19:30:25.883Z,22.20
2018-02-18T19:32:55.165Z,22.37
2018-02-18T19:35:23.453Z,21.40
2018-02-18T19:37:52.856Z,21.90
2018-02-18T19:40:21.436Z,22.70
2018-02-18T19:42:49.303Z,21.70
2018-02-18T19:45:17.627Z,23.17
2018-02-18T19:47:46.512Z,22.70
2018-02-18T19:50:15.181Z,21.80
2018-02-18T19:52:42.942Z,23.90
2018-02-18T19:55:10.795Z,21.90
2018-02-18T19:57:38.800Z,21.50
2018-02-18T20:00:06.579Z,22.30
2018-02-18T20:02:35.314Z,23.85
2018-02-18T20:05:05.012Z,23.02
2018-02-18T20:07:32.798Z,24.00
2018-02-18T20:10:00.555Z,22.48
2018-02-18T20:12:28.306Z,23.50
2018-02-18T20:14:56.102Z,24.20
2018-02-18T20:17:23.921Z,24.08
2018-02-18T20:19:51.644Z,23.10
2018-02-18T20:22:19.450Z,24.10
2018-02-18T20:24:47.222Z,24.65
2018-02-18T20:27:15.854Z,24.70
2018-02-18T20:29:44.432Z,24.25
2018-02-18T20:32:13.091Z,24.47
2018-02-18T20:34:41.553Z,22.85
2018-02-18T20:37:10.238Z,23.47
2018-02-18T20:39:37.919Z,22.92
2018-02-18T20:42:05.586Z,23.65
2018-02-18T20:44:33.262Z,24.25
2018-02-18T20:47:02.828Z,26.27
2018-02-18T20:49:32.685Z,23.33
2018-02-18T20:52:00.450Z,24.70
2018-02-18T20:54:29.833Z,24.40
2018-02-18T20:56:57.568Z,25.85
2018-02-18T20:59:25.983Z,24.63
2018-02-18T21:01:54.738Z,25.15
2018-02-18T21:04:23.231Z,24.77
2018-02-18T21:06:50.976Z,23.23
2018-02-18T21:09:19.393Z,23.58
2018-02-18T21:11:47.101Z,24.05
2018-02-18T21:14:15.205Z,24.70
2018-02-18T21:16:43.021Z,23.42
2018-02-18T21:19:10.796Z,22.98
2018-02-18T21:21:39.702Z,24.05
2018-02-18T21:24:07.498Z,23.83
2018-02-18T21:26:35.682Z,23.50
2018-02-18T21:29:04.185Z,23.20
2018-02-18T21:31:36.532Z,22.67
2018-02-18T21:34:04.601Z,23.85
2018-02-18T21:36:35.916Z,23.77
2018-02-18T21:39:03.836Z,22.95
2018-02-18T21:41:35.041Z,24.25
2018-02-18T21:44:02.756Z,24.60
2018-02-18T21:46:31.341Z,24.52
2018-02-18T21:48:59.100Z,24.77
2018-02-18T21:51:27.741Z,23.58
2018-02-18T21:53:55.617Z,24.37
2018-02-18T21:56:23.794Z,23.30
2018-02-18T21:58:51.632Z,24.15
2018-02-18T22:01:20.089Z,23.98
2018-02-18T22:03:48.007Z,23.38
2018-02-18T22:06:17.097Z,23.45
2018-02-18T22:08:46.344Z,22.97
2018-02-18T22:11:15.899Z,23.87
2018-02-18T22:13:43.629Z,25.40
2018-02-18T22:16:11.315Z,24.30
2018-02-18T22:18:39.062Z,29.30
2018-02-18T22:21:06.872Z,24.90
2018-02-18T22:23:34.570Z,24.95
2018-02-18T22:26:02.285Z,25.77
2018-02-18T22:28:30.013Z,24.40
2018-02-18T22:30:58.119Z,24.55
2018-02-18T22:33:26.116Z,24.20
2018-02-18T22:35:54.689Z,25.60
2018-02-18T22:38:23.429Z,24.48
2018-02-18T22:40:51.314Z,25.52
2018-02-18T22:43:19.601Z,22.13
2018-02-18T22:45:47.412Z,23.98
2018-02-18T22:48:15.585Z,24.37
2018-02-18T22:50:43.426Z,24.17
2018-02-18T22:53:12.225Z,25.02
2018-02-18T22:55:40.994Z,26.30
2018-02-18T22:58:08.753Z,25.92
2018-02-18T23:00:36.467Z,24.17
2018-02-18T23:03:04.176Z,24.77
2018-02-18T23:05:37.593Z,25.70
2018-02-18T23:08:05.490Z,24.50
2018-02-18T23:10:34.105Z,23.75
2018-02-18T23:13:02.085Z,24.10
2018-02-18T23:15:29.950Z,25.88
2018-02-18T23:17:58.433Z,25.73
2018-02-18T23:20:26.901Z,25.50
2018-02-18T23:22:54.961Z,24.37
2018-02-18T23:25:23.154Z,26.30
2018-02-18T23:27:50.937Z,24.48
2018-02-18T23:30:20.631Z,26.23
2018-02-18T23:32:49.611Z,24.80
2018-02-18T23:35:18.102Z,26.05
2018-02-18T23:37:45.903Z,25.15
2018-02-18T23:40:14.542Z,24.48
2018-02-18T23:42:43.266Z,24.98
2018-02-18T23:45:11.200Z,26.15
2018-02-18T23:47:39.277Z,25.45
2018-02-18T23:50:08.439Z,26.75
2018-02-18T23:52:37.715Z,25.60
2018-02-18T23:55:06.064Z,25.95
2018-02-18T23:57:33.873Z,25.88
